sensor_id;sensor_type;location;lat;lon;timestamp;pressure;altitude;pressure_sealevel;temperature;humidity
38530;BME280;24301;54.332;48.386;2023-05-25T00:00:57;99586.06;;;19.55;35.53
38530;BME280;24301;54.332;48.386;2023-05-25T00:03:23;99592.41;;;19.52;35.59
38530;BME280;24301;54.332;48.386;2023-05-25T00:05:52;99582.59;;;19.52;35.38
38530;BME280;24301;54.332;48.386;2023-05-25T00:08:18;99587.94;;;19.52;35.52
38530;BME280;24301;54.332;48.386;2023-05-25T00:10:44;99573.81;;;19.50;35.50
38530;BME280;24301;54.332;48.386;2023-05-25T00:13:10;99587.09;;;19.52;35.51
38530;BME280;24301;54.332;48.386;2023-05-25T00:15:36;99593.25;;;19.52;35.54
38530;BME280;24301;54.332;48.386;2023-05-25T00:18:01;99587.00;;;19.53;35.32
38530;BME280;24301;54.332;48.386;2023-05-25T00:20:27;99578.16;;;19.53;35.47
38530;BME280;24301;54.332;48.386;2023-05-25T00:22:53;99588.03;;;19.51;35.42
38530;BME280;24301;54.332;48.386;2023-05-25T00:25:20;99583.50;;;19.53;35.40
38530;BME280;24301;54.332;48.386;2023-05-25T00:27:46;99589.81;;;19.50;35.54
38530;BME280;24301;54.332;48.386;2023-05-25T00:30:13;99591.66;;;19.48;35.68
38530;BME280;24301;54.332;48.386;2023-05-25T00:32:39;99584.47;;;19.50;35.63
38530;BME280;24301;54.332;48.386;2023-05-25T00:35:05;99599.66;;;19.48;35.67
38530;BME280;24301;54.332;48.386;2023-05-25T00:37:40;99593.47;;;19.48;35.56
38530;BME280;24301;54.332;48.386;2023-05-25T00:40:09;99598.69;;;19.51;35.67
38530;BME280;24301;54.332;48.386;2023-05-25T00:42:37;99594.94;;;19.55;35.62
38530;BME280;24301;54.332;48.386;2023-05-25T00:45:04;99588.56;;;19.59;35.58
38530;BME280;24301;54.332;48.386;2023-05-25T00:47:32;99596.22;;;19.67;35.52
38530;BME280;24301;54.332;48.386;2023-05-25T00:49:58;99587.16;;;19.71;35.24
38530;BME280;24301;54.332;48.386;2023-05-25T00:52:25;99593.16;;;19.76;35.35
38530;BME280;24301;54.332;48.386;2023-05-25T00:54:53;99590.72;;;19.72;35.35
38530;BME280;24301;54.332;48.386;2023-05-25T00:57:21;99595.31;;;19.68;35.68
38530;BME280;24301;54.332;48.386;2023-05-25T00:59:50;99588.41;;;19.62;35.70
38530;BME280;24301;54.332;48.386;2023-05-25T01:02:18;99590.03;;;19.66;35.75
38530;BME280;24301;54.332;48.386;2023-05-25T01:04:50;99584.38;;;19.74;35.55
38530;BME280;24301;54.332;48.386;2023-05-25T01:07:21;99592.97;;;19.81;35.61
38530;BME280;24301;54.332;48.386;2023-05-25T01:09:53;99590.03;;;19.87;35.45
38530;BME280;24301;54.332;48.386;2023-05-25T01:12:21;99601.06;;;20.00;35.36
38530;BME280;24301;54.332;48.386;2023-05-25T01:14:48;99601.63;;;20.08;35.06
38530;BME280;24301;54.332;48.386;2023-05-25T01:17:14;99599.31;;;20.20;34.98
38530;BME280;24301;54.332;48.386;2023-05-25T01:19:40;99601.78;;;20.24;34.79
38530;BME280;24301;54.332;48.386;2023-05-25T01:22:18;99590.50;;;20.38;34.24
38530;BME280;24301;54.332;48.386;2023-05-25T01:24:50;99594.16;;;20.55;34.26
38530;BME280;24301;54.332;48.386;2023-05-25T01:27:25;99586.09;;;20.76;33.88
38530;BME280;24301;54.332;48.386;2023-05-25T01:29:58;99587.44;;;20.86;33.31
38530;BME280;24301;54.332;48.386;2023-05-25T01:32:24;99586.84;;;20.99;33.13
38530;BME280;24301;54.332;48.386;2023-05-25T01:34:51;99579.03;;;21.13;32.54
38530;BME280;24301;54.332;48.386;2023-05-25T01:37:20;99590.69;;;21.30;32.98
38530;BME280;24301;54.332;48.386;2023-05-25T01:39:49;99583.69;;;21.45;32.71
38530;BME280;24301;54.332;48.386;2023-05-25T01:42:15;99580.47;;;21.56;32.15
38530;BME280;24301;54.332;48.386;2023-05-25T01:44:41;99591.69;;;21.64;32.13
38530;BME280;24301;54.332;48.386;2023-05-25T01:47:30;99574.34;;;21.73;31.55
38530;BME280;24301;54.332;48.386;2023-05-25T01:52:44;99586.16;;;22.20;30.97
38530;BME280;24301;54.332;48.386;2023-05-25T01:55:14;99574.31;;;22.24;31.11
38530;BME280;24301;54.332;48.386;2023-05-25T01:57:45;99583.91;;;22.28;31.36
38530;BME280;24301;54.332;48.386;2023-05-25T02:00:14;99580.59;;;22.41;30.89
38530;BME280;24301;54.332;48.386;2023-05-25T02:02:43;99590.59;;;22.71;30.50
38530;BME280;24301;54.332;48.386;2023-05-25T02:05:10;99577.28;;;22.85;30.43
38530;BME280;24301;54.332;48.386;2023-05-25T02:07:36;99569.75;;;22.92;30.04
38530;BME280;24301;54.332;48.386;2023-05-25T02:10:03;99567.84;;;23.10;30.09
38530;BME280;24301;54.332;48.386;2023-05-25T02:12:32;99564.16;;;23.59;29.51
38530;BME280;24301;54.332;48.386;2023-05-25T02:14:59;99563.94;;;23.93;28.75
38530;BME280;24301;54.332;48.386;2023-05-25T02:17:25;99576.63;;;24.05;28.47
38530;BME280;24301;54.332;48.386;2023-05-25T02:19:53;99576.25;;;24.11;27.85
38530;BME280;24301;54.332;48.386;2023-05-25T02:22:22;99570.91;;;24.41;27.75
38530;BME280;24301;54.332;48.386;2023-05-25T02:24:48;99577.59;;;24.48;27.27
38530;BME280;24301;54.332;48.386;2023-05-25T02:27:14;99573.31;;;24.31;27.50
38530;BME280;24301;54.332;48.386;2023-05-25T02:29:40;99565.19;;;24.74;27.56
38530;BME280;24301;54.332;48.386;2023-05-25T02:32:09;99563.66;;;25.12;26.69
38530;BME280;24301;54.332;48.386;2023-05-25T02:34:35;99572.53;;;25.14;26.65
38530;BME280;24301;54.332;48.386;2023-05-25T02:37:01;99575.75;;;25.19;26.41
38530;BME280;24301;54.332;48.386;2023-05-25T02:39:29;99575.38;;;25.38;25.92
38530;BME280;24301;54.332;48.386;2023-05-25T02:41:57;99565.16;;;25.58;25.33
38530;BME280;24301;54.332;48.386;2023-05-25T02:44:23;99583.16;;;26.09;25.20
38530;BME280;24301;54.332;48.386;2023-05-25T02:46:48;99583.75;;;26.41;25.74
38530;BME280;24301;54.332;48.386;2023-05-25T02:49:15;99577.22;;;26.69;25.43
38530;BME280;24301;54.332;48.386;2023-05-25T02:51:40;99572.94;;;27.04;25.28
38530;BME280;24301;54.332;48.386;2023-05-25T02:54:06;99580.88;;;27.18;24.99
38530;BME280;24301;54.332;48.386;2023-05-25T02:56:32;99574.94;;;27.13;24.67
38530;BME280;24301;54.332;48.386;2023-05-25T02:59:00;99577.66;;;27.49;24.71
38530;BME280;24301;54.332;48.386;2023-05-25T03:01:30;99583.78;;;28.11;24.39
38530;BME280;24301;54.332;48.386;2023-05-25T03:03:56;99577.56;;;28.67;23.59
38530;BME280;24301;54.332;48.386;2023-05-25T03:06:25;99583.44;;;28.95;23.02
38530;BME280;24301;54.332;48.386;2023-05-25T03:08:55;99576.88;;;29.09;22.85
38530;BME280;24301;54.332;48.386;2023-05-25T03:11:21;99567.72;;;29.22;22.96
38530;BME280;24301;54.332;48.386;2023-05-25T03:13:49;99581.09;;;29.35;22.54
38530;BME280;24301;54.332;48.386;2023-05-25T03:16:16;99566.41;;;29.49;21.86
38530;BME280;24301;54.332;48.386;2023-05-25T03:18:42;99565.97;;;29.65;21.94
38530;BME280;24301;54.332;48.386;2023-05-25T03:21:09;99569.47;;;29.98;21.70
38530;BME280;24301;54.332;48.386;2023-05-25T03:23:35;99570.69;;;29.84;21.68
38530;BME280;24301;54.332;48.386;2023-05-25T03:26:04;99569.59;;;29.54;21.87
38530;BME280;24301;54.332;48.386;2023-05-25T03:28:31;99566.03;;;29.53;22.11
38530;BME280;24301;54.332;48.386;2023-05-25T03:30:57;99570.25;;;29.89;21.64
38530;BME280;24301;54.332;48.386;2023-05-25T03:33:26;99577.53;;;30.40;21.13
38530;BME280;24301;54.332;48.386;2023-05-25T03:35:52;99574.16;;;30.89;21.02
38530;BME280;24301;54.332;48.386;2023-05-25T03:38:18;99575.84;;;31.21;20.31
38530;BME280;24301;54.332;48.386;2023-05-25T03:40:45;99572.38;;;31.29;20.52
38530;BME280;24301;54.332;48.386;2023-05-25T03:43:11;99567.69;;;31.31;20.44
38530;BME280;24301;54.332;48.386;2023-05-25T03:45:37;99585.13;;;31.29;20.77
38530;BME280;24301;54.332;48.386;2023-05-25T03:48:03;99563.66;;;31.65;20.18
38530;BME280;24301;54.332;48.386;2023-05-25T03:50:30;99579.22;;;32.02;20.06
38530;BME280;24301;54.332;48.386;2023-05-25T03:52:56;99582.31;;;32.17;19.47
38530;BME280;24301;54.332;48.386;2023-05-25T03:55:22;99574.84;;;32.29;19.67
38530;BME280;24301;54.332;48.386;2023-05-25T03:57:50;99568.84;;;32.35;20.00
38530;BME280;24301;54.332;48.386;2023-05-25T04:00:16;99577.56;;;32.67;19.66
38530;BME280;24301;54.332;48.386;2023-05-25T04:02:42;99572.41;;;32.74;19.45
38530;BME280;24301;54.332;48.386;2023-05-25T04:05:08;99572.59;;;32.62;19.58
38530;BME280;24301;54.332;48.386;2023-05-25T04:07:34;99564.81;;;32.39;20.12
38530;BME280;24301;54.332;48.386;2023-05-25T04:10:02;99582.94;;;32.11;19.33
38530;BME280;24301;54.332;48.386;2023-05-25T04:12:30;99566.06;;;31.98;20.35
38530;BME280;24301;54.332;48.386;2023-05-25T04:14:57;99569.41;;;32.39;20.05
38530;BME280;24301;54.332;48.386;2023-05-25T04:17:24;99551.94;;;32.32;19.52
38530;BME280;24301;54.332;48.386;2023-05-25T04:19:51;99562.22;;;32.76;19.85
38530;BME280;24301;54.332;48.386;2023-05-25T04:22:17;99563.28;;;32.65;19.55
38530;BME280;24301;54.332;48.386;2023-05-25T04:24:45;99576.03;;;32.54;20.07
38530;BME280;24301;54.332;48.386;2023-05-25T04:27:11;99556.91;;;33.20;19.60
38530;BME280;24301;54.332;48.386;2023-05-25T04:29:42;99554.59;;;33.25;19.74
38530;BME280;24301;54.332;48.386;2023-05-25T04:32:27;99560.88;;;33.26;19.48
38530;BME280;24301;54.332;48.386;2023-05-25T04:35:14;99564.16;;;33.30;19.52
38530;BME280;24301;54.332;48.386;2023-05-25T04:37:43;99573.91;;;33.50;19.61
38530;BME280;24301;54.332;48.386;2023-05-25T04:40:13;99577.53;;;33.59;19.22
38530;BME280;24301;54.332;48.386;2023-05-25T04:42:40;99562.03;;;33.78;18.95
38530;BME280;24301;54.332;48.386;2023-05-25T04:45:07;99568.09;;;34.16;18.81
38530;BME280;24301;54.332;48.386;2023-05-25T04:47:35;99567.81;;;34.54;18.05
38530;BME280;24301;54.332;48.386;2023-05-25T04:50:02;99564.44;;;34.68;17.60
38530;BME280;24301;54.332;48.386;2023-05-25T04:52:30;99562.63;;;34.86;17.66
38530;BME280;24301;54.332;48.386;2023-05-25T04:54:57;99560.31;;;34.56;18.02
38530;BME280;24301;54.332;48.386;2023-05-25T04:57:24;99560.41;;;34.12;18.18
38530;BME280;24301;54.332;48.386;2023-05-25T04:59:53;99569.44;;;34.47;17.98
38530;BME280;24301;54.332;48.386;2023-05-25T05:02:19;99552.31;;;35.22;17.38
38530;BME280;24301;54.332;48.386;2023-05-25T05:04:46;99549.59;;;34.28;17.60
38530;BME280;24301;54.332;48.386;2023-05-25T05:07:12;99560.22;;;34.48;17.82
38530;BME280;24301;54.332;48.386;2023-05-25T05:09:38;99549.59;;;34.28;17.74
38530;BME280;24301;54.332;48.386;2023-05-25T05:12:04;99561.00;;;34.58;17.83
38530;BME280;24301;54.332;48.386;2023-05-25T05:14:35;99559.41;;;33.68;17.98
38530;BME280;24301;54.332;48.386;2023-05-25T05:17:02;99555.13;;;32.93;18.39
38530;BME280;24301;54.332;48.386;2023-05-25T05:19:28;99547.56;;;33.77;18.31
38530;BME280;24301;54.332;48.386;2023-05-25T05:21:54;99548.00;;;34.17;17.99
38530;BME280;24301;54.332;48.386;2023-05-25T05:24:23;99550.81;;;33.99;18.28
38530;BME280;24301;54.332;48.386;2023-05-25T05:26:49;99530.00;;;34.67;17.50
38530;BME280;24301;54.332;48.386;2023-05-25T05:29:16;99541.03;;;34.49;17.91
38530;BME280;24301;54.332;48.386;2023-05-25T05:31:49;99542.59;;;33.73;18.00
38530;BME280;24301;54.332;48.386;2023-05-25T05:34:16;99553.41;;;33.10;19.44
38530;BME280;24301;54.332;48.386;2023-05-25T05:36:42;99549.38;;;32.96;19.48
38530;BME280;24301;54.332;48.386;2023-05-25T05:39:08;99557.53;;;32.40;20.17
38530;BME280;24301;54.332;48.386;2023-05-25T05:41:34;99553.09;;;32.29;20.36
38530;BME280;24301;54.332;48.386;2023-05-25T05:44:00;99545.91;;;32.76;19.72
38530;BME280;24301;54.332;48.386;2023-05-25T05:46:26;99544.50;;;33.00;19.64
38530;BME280;24301;54.332;48.386;2023-05-25T05:48:54;99547.34;;;32.98;19.89
38530;BME280;24301;54.332;48.386;2023-05-25T05:51:21;99540.97;;;33.07;19.58
38530;BME280;24301;54.332;48.386;2023-05-25T05:53:48;99546.66;;;32.68;20.13
38530;BME280;24301;54.332;48.386;2023-05-25T05:56:17;99541.06;;;33.34;19.83
38530;BME280;24301;54.332;48.386;2023-05-25T05:58:46;99533.84;;;33.43;19.99
38530;BME280;24301;54.332;48.386;2023-05-25T06:01:14;99528.50;;;34.30;18.88
38530;BME280;24301;54.332;48.386;2023-05-25T06:03:42;99532.25;;;34.80;18.27
38530;BME280;24301;54.332;48.386;2023-05-25T06:06:08;99509.13;;;35.09;18.18
38530;BME280;24301;54.332;48.386;2023-05-25T06:08:34;99517.03;;;35.62;18.02
38530;BME280;24301;54.332;48.386;2023-05-25T06:11:00;99527.75;;;35.72;17.00
38530;BME280;24301;54.332;48.386;2023-05-25T06:13:27;99519.44;;;35.65;17.72
38530;BME280;24301;54.332;48.386;2023-05-25T06:15:54;99517.47;;;35.00;18.14
38530;BME280;24301;54.332;48.386;2023-05-25T06:18:22;99542.13;;;34.30;18.62
38530;BME280;24301;54.332;48.386;2023-05-25T06:20:48;99534.75;;;33.70;19.50
38530;BME280;24301;54.332;48.386;2023-05-25T06:23:14;99551.50;;;33.57;20.27
38530;BME280;24301;54.332;48.386;2023-05-25T06:25:40;99545.88;;;33.40;20.59
38530;BME280;24301;54.332;48.386;2023-05-25T06:28:06;99548.69;;;32.84;21.13
38530;BME280;24301;54.332;48.386;2023-05-25T06:30:31;99545.84;;;32.86;21.68
38530;BME280;24301;54.332;48.386;2023-05-25T06:32:57;99532.81;;;32.61;21.22
38530;BME280;24301;54.332;48.386;2023-05-25T06:35:24;99531.16;;;32.96;21.65
38530;BME280;24301;54.332;48.386;2023-05-25T06:37:51;99540.53;;;32.84;20.23
38530;BME280;24301;54.332;48.386;2023-05-25T06:40:18;99536.94;;;33.12;20.71
38530;BME280;24301;54.332;48.386;2023-05-25T06:42:45;99554.94;;;32.66;20.64
38530;BME280;24301;54.332;48.386;2023-05-25T06:45:46;99556.22;;;32.72;20.45
38530;BME280;24301;54.332;48.386;2023-05-25T06:48:12;99543.19;;;32.48;20.49
38530;BME280;24301;54.332;48.386;2023-05-25T06:50:39;99540.50;;;32.66;20.85
38530;BME280;24301;54.332;48.386;2023-05-25T06:53:06;99550.63;;;33.38;20.18
38530;BME280;24301;54.332;48.386;2023-05-25T06:55:32;99557.03;;;33.47;20.28
38530;BME280;24301;54.332;48.386;2023-05-25T06:57:58;99536.31;;;33.36;20.37
38530;BME280;24301;54.332;48.386;2023-05-25T07:00:24;99540.78;;;33.81;20.26
38530;BME280;24301;54.332;48.386;2023-05-25T07:02:52;99539.63;;;34.10;20.38
38530;BME280;24301;54.332;48.386;2023-05-25T07:05:17;99548.06;;;34.60;19.51
38530;BME280;24301;54.332;48.386;2023-05-25T07:07:43;99531.69;;;34.60;19.68
38530;BME280;24301;54.332;48.386;2023-05-25T07:10:09;99541.06;;;34.58;19.95
38530;BME280;24301;54.332;48.386;2023-05-25T07:12:34;99543.94;;;35.07;19.23
38530;BME280;24301;54.332;48.386;2023-05-25T07:15:00;99549.56;;;34.55;18.69
38530;BME280;24301;54.332;48.386;2023-05-25T07:17:26;99536.56;;;33.87;19.58
38530;BME280;24301;54.332;48.386;2023-05-25T07:19:53;99535.91;;;33.67;20.22
38530;BME280;24301;54.332;48.386;2023-05-25T07:22:18;99546.81;;;34.20;19.80
38530;BME280;24301;54.332;48.386;2023-05-25T07:24:44;99547.38;;;34.66;19.89
38530;BME280;24301;54.332;48.386;2023-05-25T07:27:11;99534.56;;;35.02;18.99
38530;BME280;24301;54.332;48.386;2023-05-25T07:29:37;99525.22;;;35.37;18.88
38530;BME280;24301;54.332;48.386;2023-05-25T07:32:03;99551.28;;;35.15;18.38
38530;BME280;24301;54.332;48.386;2023-05-25T07:34:28;99532.88;;;35.01;18.93
38530;BME280;24301;54.332;48.386;2023-05-25T07:36:54;99546.91;;;34.36;19.70
38530;BME280;24301;54.332;48.386;2023-05-25T07:39:19;99544.72;;;34.91;19.02
38530;BME280;24301;54.332;48.386;2023-05-25T07:41:45;99538.59;;;34.81;19.13
38530;BME280;24301;54.332;48.386;2023-05-25T07:44:11;99541.25;;;34.30;19.68
38530;BME280;24301;54.332;48.386;2023-05-25T07:46:36;99536.44;;;33.71;20.03
38530;BME280;24301;54.332;48.386;2023-05-25T07:49:02;99542.75;;;32.05;22.14
38530;BME280;24301;54.332;48.386;2023-05-25T07:51:28;99536.06;;;30.81;23.23
38530;BME280;24301;54.332;48.386;2023-05-25T07:53:55;99550.41;;;29.57;24.48
38530;BME280;24301;54.332;48.386;2023-05-25T07:56:21;99533.88;;;29.06;25.69
38530;BME280;24301;54.332;48.386;2023-05-25T07:58:47;99530.75;;;29.11;25.57
38530;BME280;24301;54.332;48.386;2023-05-25T08:01:13;99543.31;;;29.45;25.63
38530;BME280;24301;54.332;48.386;2023-05-25T08:03:45;99538.50;;;29.48;25.32
38530;BME280;24301;54.332;48.386;2023-05-25T08:06:11;99541.56;;;29.11;26.11
38530;BME280;24301;54.332;48.386;2023-05-25T08:08:37;99528.63;;;28.82;26.42
38530;BME280;24301;54.332;48.386;2023-05-25T08:11:02;99538.94;;;28.77;26.87
38530;BME280;24301;54.332;48.386;2023-05-25T08:13:28;99536.16;;;28.21;27.90
38530;BME280;24301;54.332;48.386;2023-05-25T08:15:53;99535.19;;;27.64;28.73
38530;BME280;24301;54.332;48.386;2023-05-25T08:18:19;99525.84;;;27.57;28.56
38530;BME280;24301;54.332;48.386;2023-05-25T08:20:45;99528.59;;;27.68;29.49
38530;BME280;24301;54.332;48.386;2023-05-25T08:23:11;99529.28;;;27.59;29.34
38530;BME280;24301;54.332;48.386;2023-05-25T08:25:37;99522.44;;;27.30;29.83
38530;BME280;24301;54.332;48.386;2023-05-25T08:28:05;99531.66;;;27.03;30.83
38530;BME280;24301;54.332;48.386;2023-05-25T08:30:30;99524.78;;;26.86;30.27
38530;BME280;24301;54.332;48.386;2023-05-25T08:32:58;99525.44;;;26.90;30.96
38530;BME280;24301;54.332;48.386;2023-05-25T08:35:23;99518.97;;;26.92;30.35
38530;BME280;24301;54.332;48.386;2023-05-25T08:37:49;99512.59;;;26.93;30.39
38530;BME280;24301;54.332;48.386;2023-05-25T08:40:15;99502.56;;;26.95;29.53
38530;BME280;24301;54.332;48.386;2023-05-25T08:42:42;99516.88;;;26.96;30.48
38530;BME280;24301;54.332;48.386;2023-05-25T08:45:08;99517.03;;;26.94;30.46
38530;BME280;24301;54.332;48.386;2023-05-25T08:47:42;99526.50;;;26.87;30.49
38530;BME280;24301;54.332;48.386;2023-05-25T08:50:09;99524.78;;;26.86;30.66
38530;BME280;24301;54.332;48.386;2023-05-25T08:52:44;99538.47;;;26.83;30.30
38530;BME280;24301;54.332;48.386;2023-05-25T08:55:13;99537.28;;;26.87;30.82
38530;BME280;24301;54.332;48.386;2023-05-25T09:00:05;99543.13;;;26.31;30.71
38530;BME280;24301;54.332;48.386;2023-05-25T09:02:37;99528.56;;;26.07;31.16
38530;BME280;24301;54.332;48.386;2023-05-25T09:05:04;99540.63;;;26.02;31.63
38530;BME280;24301;54.332;48.386;2023-05-25T09:07:30;99531.59;;;26.16;31.76
38530;BME280;24301;54.332;48.386;2023-05-25T09:09:56;99530.81;;;26.39;31.47
38530;BME280;24301;54.332;48.386;2023-05-25T09:12:22;99523.59;;;26.53;31.71
38530;BME280;24301;54.332;48.386;2023-05-25T09:14:48;99523.59;;;26.53;31.80
38530;BME280;24301;54.332;48.386;2023-05-25T09:17:15;99516.47;;;26.52;31.67
38530;BME280;24301;54.332;48.386;2023-05-25T09:19:41;99541.44;;;26.67;31.69
38530;BME280;24301;54.332;48.386;2023-05-25T09:22:07;99525.50;;;26.64;31.76
38530;BME280;24301;54.332;48.386;2023-05-25T09:24:34;99536.19;;;26.39;32.30
38530;BME280;24301;54.332;48.386;2023-05-25T09:27:01;99522.22;;;26.08;33.19
38530;BME280;24301;54.332;48.386;2023-05-25T09:29:28;99538.38;;;25.82;34.28
38530;BME280;24301;54.332;48.386;2023-05-25T09:31:55;99541.47;;;25.63;34.34
38530;BME280;24301;54.332;48.386;2023-05-25T09:34:20;99537.81;;;25.64;33.59
38530;BME280;24301;54.332;48.386;2023-05-25T09:36:49;99523.19;;;25.81;33.20
38530;BME280;24301;54.332;48.386;2023-05-25T09:39:17;99537.00;;;25.90;33.17
38530;BME280;24301;54.332;48.386;2023-05-25T09:41:42;99517.38;;;25.88;33.45
38530;BME280;24301;54.332;48.386;2023-05-25T09:44:08;99519.97;;;26.02;32.77
38530;BME280;24301;54.332;48.386;2023-05-25T09:46:34;99527.38;;;26.11;32.56
38530;BME280;24301;54.332;48.386;2023-05-25T09:49:07;99515.63;;;26.13;32.46
38530;BME280;24301;54.332;48.386;2023-05-25T09:51:33;99508.91;;;26.20;32.63
38530;BME280;24301;54.332;48.386;2023-05-25T09:54:00;99503.59;;;26.31;31.95
38530;BME280;24301;54.332;48.386;2023-05-25T09:56:29;99505.53;;;26.29;31.71
38530;BME280;24301;54.332;48.386;2023-05-25T09:58:55;99510.69;;;26.32;31.68
38530;BME280;24301;54.332;48.386;2023-05-25T10:01:21;99504.44;;;26.45;31.68
38530;BME280;24301;54.332;48.386;2023-05-25T10:03:47;99495.44;;;26.57;31.07
38530;BME280;24301;54.332;48.386;2023-05-25T10:06:13;99495.66;;;26.54;31.42
38530;BME280;24301;54.332;48.386;2023-05-25T10:08:39;99493.47;;;26.35;32.05
38530;BME280;24301;54.332;48.386;2023-05-25T10:11:06;99498.75;;;26.23;31.93
38530;BME280;24301;54.332;48.386;2023-05-25T10:13:33;99495.66;;;26.17;31.82
38530;BME280;24301;54.332;48.386;2023-05-25T10:16:00;99500.81;;;25.94;32.36
38530;BME280;24301;54.332;48.386;2023-05-25T10:18:27;99507.56;;;25.74;32.83
38530;BME280;24301;54.332;48.386;2023-05-25T10:20:56;99504.78;;;25.62;32.94
38530;BME280;24301;54.332;48.386;2023-05-25T10:23:24;99497.38;;;25.66;32.48
38530;BME280;24301;54.332;48.386;2023-05-25T10:25:53;99492.63;;;25.82;32.15
38530;BME280;24301;54.332;48.386;2023-05-25T10:31:18;99487.56;;;26.04;31.68
38530;BME280;24301;54.332;48.386;2023-05-25T10:33:44;99482.72;;;26.09;31.69
38530;BME280;24301;54.332;48.386;2023-05-25T10:36:10;99469.31;;;26.33;31.68
38530;BME280;24301;54.332;48.386;2023-05-25T10:38:38;99472.81;;;26.60;31.50
38530;BME280;24301;54.332;48.386;2023-05-25T10:41:04;99477.16;;;26.87;31.27
38530;BME280;24301;54.332;48.386;2023-05-25T10:43:30;99467.06;;;27.13;30.13
38530;BME280;24301;54.332;48.386;2023-05-25T10:45:56;99471.72;;;27.11;30.52
38530;BME280;24301;54.332;48.386;2023-05-25T10:48:22;99461.69;;;27.13;30.08
38530;BME280;24301;54.332;48.386;2023-05-25T10:50:51;99456.59;;;27.21;30.84
38530;BME280;24301;54.332;48.386;2023-05-25T10:53:17;99455.63;;;27.34;30.43
38530;BME280;24301;54.332;48.386;2023-05-25T10:58:18;99454.63;;;27.59;30.28
38530;BME280;24301;54.332;48.386;2023-05-25T11:06:17;99462.09;;;27.56;30.03
38530;BME280;24301;54.332;48.386;2023-05-25T11:08:56;99462.72;;;27.59;29.89
38530;BME280;24301;54.332;48.386;2023-05-25T11:14:26;99460.19;;;27.45;29.41
38530;BME280;24301;54.332;48.386;2023-05-25T11:17:05;99463.75;;;27.45;30.13
38530;BME280;24301;54.332;48.386;2023-05-25T11:19:41;99477.25;;;27.45;30.45
38530;BME280;24301;54.332;48.386;2023-05-25T11:22:13;99448.84;;;27.64;30.15
38530;BME280;24301;54.332;48.386;2023-05-25T11:24:40;99458.91;;;27.85;30.34
38530;BME280;24301;54.332;48.386;2023-05-25T11:27:06;99453.28;;;27.88;29.77
38530;BME280;24301;54.332;48.386;2023-05-25T11:29:33;99473.84;;;27.66;29.81
38530;BME280;24301;54.332;48.386;2023-05-25T11:32:00;99463.22;;;27.29;30.27
38530;BME280;24301;54.332;48.386;2023-05-25T11:34:27;99453.84;;;27.10;31.20
38530;BME280;24301;54.332;48.386;2023-05-25T11:36:55;99475.69;;;27.18;30.76
38530;BME280;24301;54.332;48.386;2023-05-25T11:39:30;99469.91;;;26.87;30.86
38530;BME280;24301;54.332;48.386;2023-05-25T11:41:57;99464.03;;;26.69;31.07
38530;BME280;24301;54.332;48.386;2023-05-25T11:44:28;99452.84;;;26.62;31.58
38530;BME280;24301;54.332;48.386;2023-05-25T11:46:54;99449.06;;;26.65;31.31
38530;BME280;24301;54.332;48.386;2023-05-25T11:49:25;99448.91;;;26.55;30.54
38530;BME280;24301;54.332;48.386;2023-05-25T11:51:57;99467.25;;;26.50;30.59
38530;BME280;24301;54.332;48.386;2023-05-25T11:54:26;99459.38;;;26.47;30.78
38530;BME280;24301;54.332;48.386;2023-05-25T11:56:53;99454.50;;;26.52;31.01
38530;BME280;24301;54.332;48.386;2023-05-25T11:59:22;99442.47;;;26.45;30.97
38530;BME280;24301;54.332;48.386;2023-05-25T12:02:00;99464.31;;;26.53;30.86
38530;BME280;24301;54.332;48.386;2023-05-25T12:04:27;99440.59;;;26.58;30.23
38530;BME280;24301;54.332;48.386;2023-05-25T12:07:04;99445.97;;;26.58;30.95
38530;BME280;24301;54.332;48.386;2023-05-25T12:09:30;99435.16;;;26.47;31.05
38530;BME280;24301;54.332;48.386;2023-05-25T12:11:56;99435.59;;;26.41;30.91
38530;BME280;24301;54.332;48.386;2023-05-25T12:14:22;99422.53;;;26.47;31.41
38530;BME280;24301;54.332;48.386;2023-05-25T12:16:48;99438.50;;;26.37;31.19
38530;BME280;24301;54.332;48.386;2023-05-25T12:19:14;99429.38;;;26.27;31.95
38530;BME280;24301;54.332;48.386;2023-05-25T12:21:41;99425.94;;;26.25;31.42
38530;BME280;24301;54.332;48.386;2023-05-25T12:24:07;99415.28;;;26.23;31.27
38530;BME280;24301;54.332;48.386;2023-05-25T12:26:33;99427.47;;;26.16;32.09
38530;BME280;24301;54.332;48.386;2023-05-25T12:29:05;99417.97;;;26.10;31.77
38530;BME280;24301;54.332;48.386;2023-05-25T12:31:31;99405.19;;;26.01;31.79
38530;BME280;24301;54.332;48.386;2023-05-25T12:34:05;99418.34;;;25.93;32.84
38530;BME280;24301;54.332;48.386;2023-05-25T12:39:03;99418.34;;;25.93;32.71
38530;BME280;24301;54.332;48.386;2023-05-25T12:41:30;99415.09;;;25.88;32.41
38530;BME280;24301;54.332;48.386;2023-05-25T12:43:55;99411.66;;;25.86;32.04
38530;BME280;24301;54.332;48.386;2023-05-25T12:46:24;99403.94;;;25.94;32.94
38530;BME280;24301;54.332;48.386;2023-05-25T12:48:50;99398.19;;;25.99;33.01
38530;BME280;24301;54.332;48.386;2023-05-25T12:51:16;99406.63;;;25.94;33.16
38530;BME280;24301;54.332;48.386;2023-05-25T12:53:45;99391.66;;;25.90;31.94
38530;BME280;24301;54.332;48.386;2023-05-25T12:56:11;99397.56;;;25.95;32.54
38530;BME280;24301;54.332;48.386;2023-05-25T12:58:37;99396.38;;;25.99;32.07
38530;BME280;24301;54.332;48.386;2023-05-25T13:01:06;99396.78;;;26.06;32.13
38530;BME280;24301;54.332;48.386;2023-05-25T13:03:31;99391.63;;;26.03;32.05
38530;BME280;24301;54.332;48.386;2023-05-25T13:06:00;99396.03;;;26.04;32.52
38530;BME280;24301;54.332;48.386;2023-05-25T13:08:29;99395.50;;;25.99;32.21
38530;BME280;24301;54.332;48.386;2023-05-25T13:10:55;99386.28;;;25.90;33.43
38530;BME280;24301;54.332;48.386;2023-05-25T13:13:20;99400.38;;;25.80;33.90